sensor_id;sensor_type;location;lat;lon;timestamp;temperature;humidity
43151;DHT22;28755;51.478;5.702;2022-09-17T00:00:03;11.10;99.90
43151;DHT22;28755;51.478;5.702;2022-09-17T00:02:29;11.00;99.90
43151;DHT22;28755;51.478;5.702;2022-09-17T00:04:55;11.00;99.90
43151;DHT22;28755;51.478;5.702;2022-09-17T00:07:20;11.10;99.90
43151;DHT22;28755;51.478;5.702;2022-09-17T00:09:46;11.10;99.90
43151;DHT22;28755;51.478;5.702;2022-09-17T00:12:11;11.20;99.90
43151;DHT22;28755;51.478;5.702;2022-09-17T00:14:37;11.10;99.90
43151;DHT22;28755;51.478;5.702;2022-09-17T00:17:04;11.20;99.90
43151;DHT22;28755;51.478;5.702;2022-09-17T00:19:30;11.20;99.90
43151;DHT22;28755;51.478;5.702;2022-09-17T00:21:55;11.20;99.90
43151;DHT22;28755;51.478;5.702;2022-09-17T00:24:21;11.20;99.90
43151;DHT22;28755;51.478;5.702;2022-09-17T00:26:47;11.20;99.90
43151;DHT22;28755;51.478;5.702;2022-09-17T00:29:13;11.20;99.90
43151;DHT22;28755;51.478;5.702;2022-09-17T00:31:39;11.20;99.90
43151;DHT22;28755;51.478;5.702;2022-09-17T00:34:05;11.20;99.90
43151;DHT22;28755;51.478;5.702;2022-09-17T00:36:34;11.30;99.90
43151;DHT22;28755;51.478;5.702;2022-09-17T00:39:00;11.30;99.90
43151;DHT22;28755;51.478;5.702;2022-09-17T00:41:29;11.30;99.90
43151;DHT22;28755;51.478;5.702;2022-09-17T00:43:57;11.30;99.90
43151;DHT22;28755;51.478;5.702;2022-09-17T00:46:37;11.30;99.90
43151;DHT22;28755;51.478;5.702;2022-09-17T00:49:18;11.40;99.90
43151;DHT22;28755;51.478;5.702;2022-09-17T00:54:20;11.40;99.90
43151;DHT22;28755;51.478;5.702;2022-09-17T00:56:46;11.40;99.90
43151;DHT22;28755;51.478;5.702;2022-09-17T00:59:14;11.40;99.90
43151;DHT22;28755;51.478;5.702;2022-09-17T01:01:39;11.50;99.90
43151;DHT22;28755;51.478;5.702;2022-09-17T01:04:05;11.50;99.90
43151;DHT22;28755;51.478;5.702;2022-09-17T01:07:03;11.50;99.90
43151;DHT22;28755;51.478;5.702;2022-09-17T01:09:58;11.60;99.90
43151;DHT22;28755;51.478;5.702;2022-09-17T01:12:37;11.60;99.90
43151;DHT22;28755;51.478;5.702;2022-09-17T01:29:21;11.50;99.90
43151;DHT22;28755;51.478;5.702;2022-09-17T01:40:28;11.50;99.90
43151;DHT22;28755;51.478;5.702;2022-09-17T01:43:15;11.50;99.90
43151;DHT22;28755;51.478;5.702;2022-09-17T01:45:51;11.60;99.90
43151;DHT22;28755;51.478;5.702;2022-09-17T01:48:20;11.60;99.90
43151;DHT22;28755;51.478;5.702;2022-09-17T01:50:59;11.60;99.90
43151;DHT22;28755;51.478;5.702;2022-09-17T01:53:53;11.60;99.90
43151;DHT22;28755;51.478;5.702;2022-09-17T01:56:25;11.60;99.90
43151;DHT22;28755;51.478;5.702;2022-09-17T01:59:15;11.50;99.90
43151;DHT22;28755;51.478;5.702;2022-09-17T02:01:45;11.50;99.90
43151;DHT22;28755;51.478;5.702;2022-09-17T02:04:30;11.50;99.90
43151;DHT22;28755;51.478;5.702;2022-09-17T02:07:04;11.60;99.90
43151;DHT22;28755;51.478;5.702;2022-09-17T02:09:43;11.40;99.90
43151;DHT22;28755;51.478;5.702;2022-09-17T02:12:14;11.40;99.90
43151;DHT22;28755;51.478;5.702;2022-09-17T02:14:47;11.40;99.90
43151;DHT22;28755;51.478;5.702;2022-09-17T02:20:02;11.30;99.90
43151;DHT22;28755;51.478;5.702;2022-09-17T02:25:23;11.20;99.90
43151;DHT22;28755;51.478;5.702;2022-09-17T02:28:01;11.20;99.90
43151;DHT22;28755;51.478;5.702;2022-09-17T02:30:29;11.20;99.90
43151;DHT22;28755;51.478;5.702;2022-09-17T02:32:55;11.20;99.90
43151;DHT22;28755;51.478;5.702;2022-09-17T02:35:21;11.30;99.90
43151;DHT22;28755;51.478;5.702;2022-09-17T02:37:46;11.30;99.90
43151;DHT22;28755;51.478;5.702;2022-09-17T02:40:15;11.30;99.90
43151;DHT22;28755;51.478;5.702;2022-09-17T02:43:04;11.30;99.90
43151;DHT22;28755;51.478;5.702;2022-09-17T02:45:51;11.40;99.90
43151;DHT22;28755;51.478;5.702;2022-09-17T02:54:25;11.40;99.90
43151;DHT22;28755;51.478;5.702;2022-09-17T02:57:18;11.30;99.90
43151;DHT22;28755;51.478;5.702;2022-09-17T03:02:57;11.30;99.90
43151;DHT22;28755;51.478;5.702;2022-09-17T03:05:24;11.30;99.90
43151;DHT22;28755;51.478;5.702;2022-09-17T03:07:50;11.30;99.90
43151;DHT22;28755;51.478;5.702;2022-09-17T03:10:16;11.30;99.90
43151;DHT22;28755;51.478;5.702;2022-09-17T03:12:42;11.20;99.90
43151;DHT22;28755;51.478;5.702;2022-09-17T03:15:08;11.20;99.90
43151;DHT22;28755;51.478;5.702;2022-09-17T03:17:34;11.20;99.90
43151;DHT22;28755;51.478;5.702;2022-09-17T03:20:00;11.30;99.90
43151;DHT22;28755;51.478;5.702;2022-09-17T03:22:26;11.30;99.90
43151;DHT22;28755;51.478;5.702;2022-09-17T03:24:51;11.30;99.90
43151;DHT22;28755;51.478;5.702;2022-09-17T03:27:17;11.30;99.90
43151;DHT22;28755;51.478;5.702;2022-09-17T03:29:43;11.40;99.90
43151;DHT22;28755;51.478;5.702;2022-09-17T03:32:08;11.40;99.90
43151;DHT22;28755;51.478;5.702;2022-09-17T03:34:34;11.40;99.90
43151;DHT22;28755;51.478;5.702;2022-09-17T03:37:00;11.40;99.90
43151;DHT22;28755;51.478;5.702;2022-09-17T03:39:25;11.50;99.90
43151;DHT22;28755;51.478;5.702;2022-09-17T03:41:51;11.30;99.90
43151;DHT22;28755;51.478;5.702;2022-09-17T03:44:17;11.30;99.90
43151;DHT22;28755;51.478;5.702;2022-09-17T03:46:43;11.20;99.90
43151;DHT22;28755;51.478;5.702;2022-09-17T03:49:09;11.20;99.90
43151;DHT22;28755;51.478;5.702;2022-09-17T03:51:35;11.10;99.90
43151;DHT22;28755;51.478;5.702;2022-09-17T03:54:00;11.20;99.90
43151;DHT22;28755;51.478;5.702;2022-09-17T03:56:27;11.10;99.90
43151;DHT22;28755;51.478;5.702;2022-09-17T03:58:58;11.20;99.90
43151;DHT22;28755;51.478;5.702;2022-09-17T04:01:24;11.30;99.90
43151;DHT22;28755;51.478;5.702;2022-09-17T04:03:50;11.30;99.90
43151;DHT22;28755;51.478;5.702;2022-09-17T04:06:15;11.30;99.90
43151;DHT22;28755;51.478;5.702;2022-09-17T04:08:41;11.20;99.90
43151;DHT22;28755;51.478;5.702;2022-09-17T04:11:08;11.20;99.90
43151;DHT22;28755;51.478;5.702;2022-09-17T04:13:34;11.20;99.90
43151;DHT22;28755;51.478;5.702;2022-09-17T04:16:00;11.30;99.90
43151;DHT22;28755;51.478;5.702;2022-09-17T04:18:26;11.20;99.90
43151;DHT22;28755;51.478;5.702;2022-09-17T04:20:51;11.20;99.90
43151;DHT22;28755;51.478;5.702;2022-09-17T04:23:18;11.10;99.90
43151;DHT22;28755;51.478;5.702;2022-09-17T04:25:43;11.30;99.90
43151;DHT22;28755;51.478;5.702;2022-09-17T04:28:09;11.30;99.90
43151;DHT22;28755;51.478;5.702;2022-09-17T04:30:35;11.20;99.90
43151;DHT22;28755;51.478;5.702;2022-09-17T04:33:01;11.20;99.90
43151;DHT22;28755;51.478;5.702;2022-09-17T04:35:27;11.10;99.90
43151;DHT22;28755;51.478;5.702;2022-09-17T04:37:54;11.00;99.90
43151;DHT22;28755;51.478;5.702;2022-09-17T04:40:21;11.00;99.90
43151;DHT22;28755;51.478;5.702;2022-09-17T04:42:47;10.90;99.90
43151;DHT22;28755;51.478;5.702;2022-09-17T04:45:13;10.90;99.90
43151;DHT22;28755;51.478;5.702;2022-09-17T04:47:39;10.80;99.90
43151;DHT22;28755;51.478;5.702;2022-09-17T04:50:05;10.80;99.90
43151;DHT22;28755;51.478;5.702;2022-09-17T04:52:31;10.80;99.90
43151;DHT22;28755;51.478;5.702;2022-09-17T04:54:56;10.80;99.90
43151;DHT22;28755;51.478;5.702;2022-09-17T04:57:22;10.80;99.90
43151;DHT22;28755;51.478;5.702;2022-09-17T04:59:50;10.80;99.90
43151;DHT22;28755;51.478;5.702;2022-09-17T05:02:16;10.70;99.90
43151;DHT22;28755;51.478;5.702;2022-09-17T05:04:41;10.70;99.90
43151;DHT22;28755;51.478;5.702;2022-09-17T05:07:07;10.70;99.90
43151;DHT22;28755;51.478;5.702;2022-09-17T05:09:33;10.70;99.90
43151;DHT22;28755;51.478;5.702;2022-09-17T05:11:59;10.70;99.90
43151;DHT22;28755;51.478;5.702;2022-09-17T05:14:24;10.70;99.90
43151;DHT22;28755;51.478;5.702;2022-09-17T05:16:50;10.70;99.90
43151;DHT22;28755;51.478;5.702;2022-09-17T05:19:15;10.80;99.90
43151;DHT22;28755;51.478;5.702;2022-09-17T05:21:41;10.70;99.90
43151;DHT22;28755;51.478;5.702;2022-09-17T05:24:06;10.70;99.90
43151;DHT22;28755;51.478;5.702;2022-09-17T05:26:33;10.70;99.90
43151;DHT22;28755;51.478;5.702;2022-09-17T05:28:58;10.60;99.90
43151;DHT22;28755;51.478;5.702;2022-09-17T05:31:24;10.60;99.90
43151;DHT22;28755;51.478;5.702;2022-09-17T05:33:49;10.70;99.90
43151;DHT22;28755;51.478;5.702;2022-09-17T05:36:15;10.60;99.90
43151;DHT22;28755;51.478;5.702;2022-09-17T05:38:40;10.60;99.90
43151;DHT22;28755;51.478;5.702;2022-09-17T05:41:06;10.60;99.90
43151;DHT22;28755;51.478;5.702;2022-09-17T05:43:32;10.60;99.90
43151;DHT22;28755;51.478;5.702;2022-09-17T05:46:04;10.70;99.90
43151;DHT22;28755;51.478;5.702;2022-09-17T05:48:30;10.70;99.90
43151;DHT22;28755;51.478;5.702;2022-09-17T05:50:56;10.70;99.90
43151;DHT22;28755;51.478;5.702;2022-09-17T05:53:22;10.80;99.90
43151;DHT22;28755;51.478;5.702;2022-09-17T05:55:48;10.70;99.90
43151;DHT22;28755;51.478;5.702;2022-09-17T05:58:16;10.80;99.90
43151;DHT22;28755;51.478;5.702;2022-09-17T06:00:42;10.90;99.90
43151;DHT22;28755;51.478;5.702;2022-09-17T06:03:09;11.10;99.90
43151;DHT22;28755;51.478;5.702;2022-09-17T06:05:35;11.10;99.90
43151;DHT22;28755;51.478;5.702;2022-09-17T06:08:01;11.20;99.90
43151;DHT22;28755;51.478;5.702;2022-09-17T06:10:27;11.20;99.90
43151;DHT22;28755;51.478;5.702;2022-09-17T06:12:59;11.30;99.90
43151;DHT22;28755;51.478;5.702;2022-09-17T06:15:26;11.20;99.90
43151;DHT22;28755;51.478;5.702;2022-09-17T06:17:52;11.40;99.90
43151;DHT22;28755;51.478;5.702;2022-09-17T06:20:18;11.50;99.90
43151;DHT22;28755;51.478;5.702;2022-09-17T06:22:44;11.50;99.90
43151;DHT22;28755;51.478;5.702;2022-09-17T06:25:10;11.50;99.90
43151;DHT22;28755;51.478;5.702;2022-09-17T06:27:36;11.40;99.90
43151;DHT22;28755;51.478;5.702;2022-09-17T06:30:02;11.50;99.90
43151;DHT22;28755;51.478;5.702;2022-09-17T06:32:28;11.40;99.90
43151;DHT22;28755;51.478;5.702;2022-09-17T06:34:54;11.50;99.90
43151;DHT22;28755;51.478;5.702;2022-09-17T06:37:29;11.50;99.90
43151;DHT22;28755;51.478;5.702;2022-09-17T06:39:55;11.50;99.90
43151;DHT22;28755;51.478;5.702;2022-09-17T06:42:21;11.40;99.90
43151;DHT22;28755;51.478;5.702;2022-09-17T06:44:46;11.40;99.90
43151;DHT22;28755;51.478;5.702;2022-09-17T06:47:12;11.50;99.90
43151;DHT22;28755;51.478;5.702;2022-09-17T06:49:38;11.60;99.90
43151;DHT22;28755;51.478;5.702;2022-09-17T06:52:03;11.50;99.90
43151;DHT22;28755;51.478;5.702;2022-09-17T06:54:29;11.60;99.90
43151;DHT22;28755;51.478;5.702;2022-09-17T06:56:55;11.90;99.90
43151;DHT22;28755;51.478;5.702;2022-09-17T06:59:21;12.10;99.90
43151;DHT22;28755;51.478;5.702;2022-09-17T07:01:47;12.10;99.90
43151;DHT22;28755;51.478;5.702;2022-09-17T07:04:12;12.10;99.90
43151;DHT22;28755;51.478;5.702;2022-09-17T07:06:38;12.20;99.90
43151;DHT22;28755;51.478;5.702;2022-09-17T07:09:04;12.40;99.90
43151;DHT22;28755;51.478;5.702;2022-09-17T07:11:31;12.40;99.90
43151;DHT22;28755;51.478;5.702;2022-09-17T07:13:57;12.80;99.90
43151;DHT22;28755;51.478;5.702;2022-09-17T07:16:23;12.80;99.90
43151;DHT22;28755;51.478;5.702;2022-09-17T07:18:53;12.70;99.90
43151;DHT22;28755;51.478;5.702;2022-09-17T07:21:19;12.70;99.90
43151;DHT22;28755;51.478;5.702;2022-09-17T07:23:44;13.00;99.90
43151;DHT22;28755;51.478;5.702;2022-09-17T07:26:15;13.00;99.90
43151;DHT22;28755;51.478;5.702;2022-09-17T07:28:43;12.70;99.90
43151;DHT22;28755;51.478;5.702;2022-09-17T07:31:09;12.70;99.90
43151;DHT22;28755;51.478;5.702;2022-09-17T07:33:36;12.60;99.90
43151;DHT22;28755;51.478;5.702;2022-09-17T07:36:04;12.80;99.90
43151;DHT22;28755;51.478;5.702;2022-09-17T07:38:31;13.50;99.90
43151;DHT22;28755;51.478;5.702;2022-09-17T07:41:03;14.00;99.90
43151;DHT22;28755;51.478;5.702;2022-09-17T07:43:31;14.10;99.90
43151;DHT22;28755;51.478;5.702;2022-09-17T07:45:58;13.90;99.90
43151;DHT22;28755;51.478;5.702;2022-09-17T07:48:25;13.70;99.90
43151;DHT22;28755;51.478;5.702;2022-09-17T07:50:50;13.40;99.90
43151;DHT22;28755;51.478;5.702;2022-09-17T07:53:16;13.40;99.90
43151;DHT22;28755;51.478;5.702;2022-09-17T07:55:49;13.30;99.90
43151;DHT22;28755;51.478;5.702;2022-09-17T07:58:15;13.30;99.90
43151;DHT22;28755;51.478;5.702;2022-09-17T08:00:40;13.30;99.90
43151;DHT22;28755;51.478;5.702;2022-09-17T08:03:06;13.50;99.90
43151;DHT22;28755;51.478;5.702;2022-09-17T08:05:32;13.60;99.90
43151;DHT22;28755;51.478;5.702;2022-09-17T08:07:58;13.80;99.90
43151;DHT22;28755;51.478;5.702;2022-09-17T08:10:23;14.00;99.90
43151;DHT22;28755;51.478;5.702;2022-09-17T08:12:55;14.10;99.90
43151;DHT22;28755;51.478;5.702;2022-09-17T08:15:21;15.20;99.90
43151;DHT22;28755;51.478;5.702;2022-09-17T08:17:47;15.80;99.90
43151;DHT22;28755;51.478;5.702;2022-09-17T08:20:14;15.40;99.90
43151;DHT22;28755;51.478;5.702;2022-09-17T08:22:40;15.10;99.90
43151;DHT22;28755;51.478;5.702;2022-09-17T08:25:06;14.90;99.90
43151;DHT22;28755;51.478;5.702;2022-09-17T08:27:32;15.20;99.90
43151;DHT22;28755;51.478;5.702;2022-09-17T08:29:58;15.30;99.90
43151;DHT22;28755;51.478;5.702;2022-09-17T08:32:24;15.50;99.90
43151;DHT22;28755;51.478;5.702;2022-09-17T08:34:50;15.00;99.90
43151;DHT22;28755;51.478;5.702;2022-09-17T08:37:18;14.70;99.90
43151;DHT22;28755;51.478;5.702;2022-09-17T08:39:44;14.30;99.90
43151;DHT22;28755;51.478;5.702;2022-09-17T08:44:48;13.90;99.90
43151;DHT22;28755;51.478;5.702;2022-09-17T08:47:21;14.30;99.90
43151;DHT22;28755;51.478;5.702;2022-09-17T08:49:52;16.40;99.90
43151;DHT22;28755;51.478;5.702;2022-09-17T08:52:45;18.70;99.90
43151;DHT22;28755;51.478;5.702;2022-09-17T09:01:11;21.90;99.90
43151;DHT22;28755;51.478;5.702;2022-09-17T09:06:30;22.40;99.90
43151;DHT22;28755;51.478;5.702;2022-09-17T09:09:03;22.60;99.90
43151;DHT22;28755;51.478;5.702;2022-09-17T09:11:30;23.70;99.90
43151;DHT22;28755;51.478;5.702;2022-09-17T09:14:15;24.30;99.90
43151;DHT22;28755;51.478;5.702;2022-09-17T09:16:44;24.90;99.90
43151;DHT22;28755;51.478;5.702;2022-09-17T09:19:26;24.80;99.90
43151;DHT22;28755;51.478;5.702;2022-09-17T09:24:23;20.80;99.90
43151;DHT22;28755;51.478;5.702;2022-09-17T09:27:15;19.60;99.90
43151;DHT22;28755;51.478;5.702;2022-09-17T09:32:53;18.50;99.90
43151;DHT22;28755;51.478;5.702;2022-09-17T09:35:29;18.90;99.90
43151;DHT22;28755;51.478;5.702;2022-09-17T09:40:52;17.60;99.90
43151;DHT22;28755;51.478;5.702;2022-09-17T09:43:47;16.50;99.90
43151;DHT22;28755;51.478;5.702;2022-09-17T10:00:29;21.20;99.90
43151;DHT22;28755;51.478;5.702;2022-09-17T10:03:20;20.90;99.90
43151;DHT22;28755;51.478;5.702;2022-09-17T10:08:21;19.60;99.90
43151;DHT22;28755;51.478;5.702;2022-09-17T10:11:15;18.40;99.90
43151;DHT22;28755;51.478;5.702;2022-09-17T10:13:41;17.20;99.90
43151;DHT22;28755;51.478;5.702;2022-09-17T10:16:26;17.40;99.90
43151;DHT22;28755;51.478;5.702;2022-09-17T10:21:40;20.40;99.90
43151;DHT22;28755;51.478;5.702;2022-09-17T10:24:27;20.90;99.90
43151;DHT22;28755;51.478;5.702;2022-09-17T10:27:02;20.30;99.90
43151;DHT22;28755;51.478;5.702;2022-09-17T10:29:30;21.50;99.90
43151;DHT22;28755;51.478;5.702;2022-09-17T10:31:56;20.20;99.90
43151;DHT22;28755;51.478;5.702;2022-09-17T10:34:27;20.00;99.90
43151;DHT22;28755;51.478;5.702;2022-09-17T10:36:54;18.70;99.90
43151;DHT22;28755;51.478;5.702;2022-09-17T10:39:37;18.00;99.90
43151;DHT22;28755;51.478;5.702;2022-09-17T10:42:16;17.50;99.90
43151;DHT22;28755;51.478;5.702;2022-09-17T10:44:55;17.40;99.90
43151;DHT22;28755;51.478;5.702;2022-09-17T10:47:26;17.10;99.90
43151;DHT22;28755;51.478;5.702;2022-09-17T10:49:59;16.50;99.90
43151;DHT22;28755;51.478;5.702;2022-09-17T10:52:29;17.70;99.90
43151;DHT22;28755;51.478;5.702;2022-09-17T11:00:19;21.90;99.90
43151;DHT22;28755;51.478;5.702;2022-09-17T11:08:18;24.00;99.80
43151;DHT22;28755;51.478;5.702;2022-09-17T11:10:49;25.20;98.50
43151;DHT22;28755;51.478;5.702;2022-09-17T11:18:44;25.50;97.20
43151;DHT22;28755;51.478;5.702;2022-09-17T11:21:25;24.70;96.80
43151;DHT22;28755;51.478;5.702;2022-09-17T11:29:39;21.90;99.30
43151;DHT22;28755;51.478;5.702;2022-09-17T11:43:02;20.50;99.90
43151;DHT22;28755;51.478;5.702;2022-09-17T11:45:43;22.40;99.90
43151;DHT22;28755;51.478;5.702;2022-09-17T11:48:16;23.70;99.20
43151;DHT22;28755;51.478;5.702;2022-09-17T11:50:52;24.80;97.40
43151;DHT22;28755;51.478;5.702;2022-09-17T11:53:42;23.90;97.00
43151;DHT22;28755;51.478;5.702;2022-09-17T11:56:29;22.00;98.00
43151;DHT22;28755;51.478;5.702;2022-09-17T12:01:57;21.20;99.90
43151;DHT22;28755;51.478;5.702;2022-09-17T12:07:35;18.70;99.90
43151;DHT22;28755;51.478;5.702;2022-09-17T12:15:41;18.90;99.90
43151;DHT22;28755;51.478;5.702;2022-09-17T12:20:52;18.30;99.90
43151;DHT22;28755;51.478;5.702;2022-09-17T12:23:39;18.40;99.90
43151;DHT22;28755;51.478;5.702;2022-09-17T12:26:25;18.50;99.90
43151;DHT22;28755;51.478;5.702;2022-09-17T12:29:10;18.90;99.90
43151;DHT22;28755;51.478;5.702;2022-09-17T12:32:09;19.60;99.90
43151;DHT22;28755;51.478;5.702;2022-09-17T12:34:56;19.20;99.90
43151;DHT22;28755;51.478;5.702;2022-09-17T12:43:04;17.10;99.90
43151;DHT22;28755;51.478;5.702;2022-09-17T12:45:57;16.60;99.90
43151;DHT22;28755;51.478;5.702;2022-09-17T12:51:54;17.80;99.90
43151;DHT22;28755;51.478;5.702;2022-09-17T12:54:39;18.20;99.90
43151;DHT22;28755;51.478;5.702;2022-09-17T12:59:53;18.00;99.90
43151;DHT22;28755;51.478;5.702;2022-09-17T13:02:32;18.10;99.90
43151;DHT22;28755;51.478;5.702;2022-09-17T13:08:21;17.70;99.90
43151;DHT22;28755;51.478;5.702;2022-09-17T13:16:17;18.00;99.90
43151;DHT22;28755;51.478;5.702;2022-09-17T13:18:54;18.20;99.90
43151;DHT22;28755;51.478;5.702;2022-09-17T13:23:50;17.90;99.90
43151;DHT22;28755;51.478;5.702;2022-09-17T13:26:18;17.90;99.90
43151;DHT22;28755;51.478;5.702;2022-09-17T13:28:46;18.00;99.90
43151;DHT22;28755;51.478;5.702;2022-09-17T13:31:21;18.10;99.90
43151;DHT22;28755;51.478;5.702;2022-09-17T13:33:58;18.10;99.90
43151;DHT22;28755;51.478;5.702;2022-09-17T13:39:34;18.50;97.40
43151;DHT22;28755;51.478;5.702;2022-09-17T13:44:39;18.30;96.90
43151;DHT22;28755;51.478;5.702;2022-09-17T13:47:19;18.20;95.90
43151;DHT22;28755;51.478;5.702;2022-09-17T13:49:52;18.00;97.90
43151;DHT22;28755;51.478;5.702;2022-09-17T13:52:46;18.00;97.60
43151;DHT22;28755;51.478;5.702;2022-09-17T13:55:37;18.00;98.00
43151;DHT22;28755;51.478;5.702;2022-09-17T14:08:47;17.80;99.90
43151;DHT22;28755;51.478;5.702;2022-09-17T14:18:58;17.40;99.90
43151;DHT22;28755;51.478;5.702;2022-09-17T14:21:33;17.40;99.90
43151;DHT22;28755;51.478;5.702;2022-09-17T14:24:12;17.50;99.90
43151;DHT22;28755;51.478;5.702;2022-09-17T14:26:48;17.50;99.90
43151;DHT22;28755;51.478;5.702;2022-09-17T14:32:14;17.30;99.90
43151;DHT22;28755;51.478;5.702;2022-09-17T14:34:40;17.10;99.90
43151;DHT22;28755;51.478;5.702;2022-09-17T14:37:11;16.90;99.90
43151;DHT22;28755;51.478;5.702;2022-09-17T14:39:38;16.80;99.90
43151;DHT22;28755;51.478;5.702;2022-09-17T14:42:12;16.90;99.90
43151;DHT22;28755;51.478;5.702;2022-09-17T14:45:06;17.00;99.90
43151;DHT22;28755;51.478;5.702;2022-09-17T14:47:35;17.10;99.90
43151;DHT22;28755;51.478;5.702;2022-09-17T14:50:23;17.10;99.90
43151;DHT22;28755;51.478;5.702;2022-09-17T14:52:53;17.00;99.90
43151;DHT22;28755;51.478;5.702;2022-09-17T14:55:21;17.10;99.90
43151;DHT22;28755;51.478;5.702;2022-09-17T14:57:56;17.30;99.90
43151;DHT22;28755;51.478;5.702;2022-09-17T15:00:25;17.60;99.90
43151;DHT22;28755;51.478;5.702;2022-09-17T15:03:18;17.30;99.90
43151;DHT22;28755;51.478;5.702;2022-09-17T15:05:47;16.70;99.90
43151;DHT22;28755;51.478;5.702;2022-09-17T15:08:17;16.50;99.90
43151;DHT22;28755;51.478;5.702;2022-09-17T15:16:09;17.10;99.90
43151;DHT22;28755;51.478;5.702;2022-09-17T15:18:41;17.00;99.90
43151;DHT22;28755;51.478;5.702;2022-09-17T15:21:42;17.10;99.90
43151;DHT22;28755;51.478;5.702;2022-09-17T15:24:31;17.10;99.90
43151;DHT22;28755;51.478;5.702;2022-09-17T15:27:07;17.30;99.90
43151;DHT22;28755;51.478;5.702;2022-09-17T15:29:34;17.40;99.90
43151;DHT22;28755;51.478;5.702;2022-09-17T15:32:07;17.40;99.90
43151;DHT22;28755;51.478;5.702;2022-09-17T15:34:34;17.60;99.90
43151;DHT22;28755;51.478;5.702;2022-09-17T15:37:19;17.90;99.90
43151;DHT22;28755;51.478;5.702;2022-09-17T15:39:49;17.90;99.90
43151;DHT22;28755;51.478;5.702;2022-09-17T15:42:29;17.90;99.80
43151;DHT22;28755;51.478;5.702;2022-09-17T15:45:21;18.00;99.80
43151;DHT22;28755;51.478;5.702;2022-09-17T15:47:53;18.10;99.90
43151;DHT22;28755;51.478;5.702;2022-09-17T15:52:45;17.80;99.90
43151;DHT22;28755;51.478;5.702;2022-09-17T15:58:02;17.60;99.90
43151;DHT22;28755;51.478;5.702;2022-09-17T16:00:28;17.50;99.90
43151;DHT22;28755;51.478;5.702;2022-09-17T16:02:55;17.50;99.90
43151;DHT22;28755;51.478;5.702;2022-09-17T16:07:50;17.60;99.90
43151;DHT22;28755;51.478;5.702;2022-09-17T16:10:16;17.70;99.90
43151;DHT22;28755;51.478;5.702;2022-09-17T16:12:42;17.60;99.90
43151;DHT22;28755;51.478;5.702;2022-09-17T16:15:08;17.70;99.90
43151;DHT22;28755;51.478;5.702;2022-09-17T16:17:46;17.60;99.90
43151;DHT22;28755;51.478;5.702;2022-09-17T16:20:17;17.30;99.90
43151;DHT22;28755;51.478;5.702;2022-09-17T16:22:44;17.30;99.90
43151;DHT22;28755;51.478;5.702;2022-09-17T16:25:12;17.10;99.90
43151;DHT22;28755;51.478;5.702;2022-09-17T16:30:14;17.30;99.90
43151;DHT22;28755;51.478;5.702;2022-09-17T16:32:40;17.20;99.90
43151;DHT22;28755;51.478;5.702;2022-09-17T16:35:07;17.10;99.90
43151;DHT22;28755;51.478;5.702;2022-09-17T16:37:33;17.00;99.90
43151;DHT22;28755;51.478;5.702;2022-09-17T16:39:58;16.90;99.90
43151;DHT22;28755;51.478;5.702;2022-09-17T16:42:28;16.80;99.90
43151;DHT22;28755;51.478;5.702;2022-09-17T16:44:54;16.50;99.90
43151;DHT22;28755;51.478;5.702;2022-09-17T16:47:19;16.40;99.90
43151;DHT22;28755;51.478;5.702;2022-09-17T16:49:45;16.40;99.90
43151;DHT22;28755;51.478;5.702;2022-09-17T16:52:10;16.30;99.90
43151;DHT22;28755;51.478;5.702;2022-09-17T16:54:36;16.20;99.90
43151;DHT22;28755;51.478;5.702;2022-09-17T16:57:02;16.10;99.90
43151;DHT22;28755;51.478;5.702;2022-09-17T16:59:27;16.10;99.90
43151;DHT22;28755;51.478;5.702;2022-09-17T17:01:53;15.90;99.90
43151;DHT22;28755;51.478;5.702;2022-09-17T17:04:19;15.80;99.90
43151;DHT22;28755;51.478;5.702;2022-09-17T17:06:45;15.80;99.90
43151;DHT22;28755;51.478;5.702;2022-09-17T17:09:11;15.60;99.90
43151;DHT22;28755;51.478;5.702;2022-09-17T17:11:37;15.60;99.90
43151;DHT22;28755;51.478;5.702;2022-09-17T17:14:02;15.60;99.90
43151;DHT22;28755;51.478;5.702;2022-09-17T17:16:30;15.50;99.90
43151;DHT22;28755;51.478;5.702;2022-09-17T17:18:55;15.50;99.90
43151;DHT22;28755;51.478;5.702;2022-09-17T17:21:21;15.50;99.90
43151;DHT22;28755;51.478;5.702;2022-09-17T17:23:47;15.40;99.90
43151;DHT22;28755;51.478;5.702;2022-09-17T17:26:15;15.40;99.90
43151;DHT22;28755;51.478;5.702;2022-09-17T17:28:41;15.40;99.90
43151;DHT22;28755;51.478;5.702;2022-09-17T17:31:07;15.40;99.90
43151;DHT22;28755;51.478;5.702;2022-09-17T17:33:33;15.40;99.90
43151;DHT22;28755;51.478;5.702;2022-09-17T17:36:00;15.30;99.90
43151;DHT22;28755;51.478;5.702;2022-09-17T17:38:26;15.20;99.90
43151;DHT22;28755;51.478;5.702;2022-09-17T17:41:07;15.20;99.90
43151;DHT22;28755;51.478;5.702;2022-09-17T17:43:33;15.20;99.90
43151;DHT22;28755;51.478;5.702;2022-09-17T17:45:59;15.20;99.90
43151;DHT22;28755;51.478;5.702;2022-09-17T17:48:26;15.20;99.90
43151;DHT22;28755;51.478;5.702;2022-09-17T17:50:52;15.20;99.90
43151;DHT22;28755;51.478;5.702;2022-09-17T17:53:17;15.10;99.90
43151;DHT22;28755;51.478;5.702;2022-09-17T17:55:53;15.10;99.90
43151;DHT22;28755;51.478;5.702;2022-09-17T17:58:18;15.00;99.90
43151;DHT22;28755;51.478;5.702;2022-09-17T18:00:44;14.90;99.90
43151;DHT22;28755;51.478;5.702;2022-09-17T18:03:09;14.90;99.90
43151;DHT22;28755;51.478;5.702;2022-09-17T18:05:38;14.90;99.90
43151;DHT22;28755;51.478;5.702;2022-09-17T18:08:04;14.70;99.90
43151;DHT22;28755;51.478;5.702;2022-09-17T18:10:29;14.60;99.90
43151;DHT22;28755;51.478;5.702;2022-09-17T18:12:55;14.60;99.90
43151;DHT22;28755;51.478;5.702;2022-09-17T18:15:21;14.50;99.90
43151;DHT22;28755;51.478;5.702;2022-09-17T18:17:46;14.40;99.90
43151;DHT22;28755;51.478;5.702;2022-09-17T18:20:14;14.40;99.90
43151;DHT22;28755;51.478;5.702;2022-09-17T18:22:40;14.30;99.90
43151;DHT22;28755;51.478;5.702;2022-09-17T18:25:06;14.20;99.90
43151;DHT22;28755;51.478;5.702;2022-09-17T18:27:32;14.20;99.90
43151;DHT22;28755;51.478;5.702;2022-09-17T18:29:57;14.20;99.90
43151;DHT22;28755;51.478;5.702;2022-09-17T18:32:23;14.20;99.90
43151;DHT22;28755;51.478;5.702;2022-09-17T18:34:48;14.10;99.90
43151;DHT22;28755;51.478;5.702;2022-09-17T18:37:14;14.10;99.90
43151;DHT22;28755;51.478;5.702;2022-09-17T18:39:39;14.10;99.90
43151;DHT22;28755;51.478;5.702;2022-09-17T18:42:05;14.00;99.90
43151;DHT22;28755;51.478;5.702;2022-09-17T18:44:31;13.90;99.90
43151;DHT22;28755;51.478;5.702;2022-09-17T18:46:56;13.90;99.90
43151;DHT22;28755;51.478;5.702;2022-09-17T18:49:22;14.00;99.90
43151;DHT22;28755;51.478;5.702;2022-09-17T18:51:48;14.00;99.90
43151;DHT22;28755;51.478;5.702;2022-09-17T18:54:13;13.90;99.90
43151;DHT22;28755;51.478;5.702;2022-09-17T18:56:39;13.90;99.90
43151;DHT22;28755;51.478;5.702;2022-09-17T18:59:06;13.80;99.90